Time;durP1;ratioP1;P1;durP2;ratioP2;P2;SDS_P1;SDS_P2;PMS_P1;PMS_P2;Temp;Humidity;BMP_temperature;BMP_pressure;BME280_temperature;BME280_humidity;BME280_pressure;Samples;Min_cycle;Max_cycle;Signal;HPM_P1;HPM_P2
2023/05/09 00:02:07;;;;;;;10.80;8.90;;;;;;;4.79;100.00;100400.01;109481;1253;70216;-68
2023/05/09 00:04:34;;;;;;;11.30;9.70;;;;;;;4.81;100.00;100399.50;109555;1253;74730;-68
2023/05/09 00:07:01;;;;;;;9.40;8.10;;;;;;;4.82;100.00;100397.15;109521;1253;60327;-69
2023/05/09 00:09:28;;;;;;;11.00;8.60;;;;;;;4.81;100.00;100397.94;109588;1253;61754;-67
2023/05/09 00:11:54;;;;;;;10.90;8.30;;;;;;;4.80;100.00;100395.70;109518;1253;76959;-69
2023/05/09 00:14:23;;;;;;;12.40;8.60;;;;;;;4.78;100.00;100396.00;109488;1253;70023;-67
2023/05/09 00:16:50;;;;;;;10.20;7.50;;;;;;;4.77;100.00;100399.27;109486;1253;73431;-68
2023/05/09 00:19:17;;;;;;;8.20;7.30;;;;;;;4.75;100.00;100397.52;109517;1253;61488;-66
2023/05/09 00:21:44;;;;;;;8.70;7.60;;;;;;;4.71;100.00;100399.21;109528;1253;62627;-66
2023/05/09 00:24:11;;;;;;;9.10;6.90;;;;;;;4.68;100.00;100397.95;109546;1252;76786;-65
2023/05/09 00:26:38;;;;;;;9.90;6.90;;;;;;;4.66;100.00;100394.79;109646;1252;68772;-68
2023/05/09 00:29:04;;;;;;;7.50;6.70;;;;;;;4.65;100.00;100392.58;109449;1253;71425;-70
2023/05/09 00:31:31;;;;;;;12.70;6.60;;;;;;;4.66;100.00;100392.75;109382;1257;60661;-68
2023/05/09 00:33:58;;;;;;;8.50;6.60;;;;;;;4.66;100.00;100396.22;109581;1252;60310;-69
2023/05/09 00:36:25;;;;;;;9.60;7.50;;;;;;;4.65;100.00;100398.02;109505;1253;76911;-67
2023/05/09 00:38:52;;;;;;;10.40;6.90;;;;;;;4.63;100.00;100395.90;109525;1252;69770;-69
2023/05/09 00:41:18;;;;;;;9.10;6.30;;;;;;;4.59;100.00;100395.70;109467;1253;71734;-67
2023/05/09 00:43:45;;;;;;;7.60;6.30;;;;;;;4.55;100.00;100389.14;109491;1252;59629;-69
2023/05/09 00:46:12;;;;;;;5.90;5.30;;;;;;;4.50;100.00;100391.92;109495;1252;62874;-68
2023/05/09 00:48:39;;;;;;;6.30;5.50;;;;;;;4.49;100.00;100390.13;109410;1252;76341;-68
2023/05/09 00:51:06;;;;;;;7.00;6.00;;;;;;;4.47;100.00;100394.45;109389;1252;70206;-67
2023/05/09 00:53:32;;;;;;;6.90;5.90;;;;;;;4.45;100.00;100391.96;109493;1257;73095;-69
2023/05/09 00:55:59;;;;;;;8.20;6.30;;;;;;;4.42;100.00;100394.32;109456;1253;59680;-70
2023/05/09 00:58:26;;;;;;;6.90;6.10;;;;;;;4.37;100.00;100393.96;109436;1252;62008;-68
2023/05/09 01:00:53;;;;;;;9.10;6.40;;;;;;;4.34;100.00;100394.12;109415;1252;76517;-69
2023/05/09 01:03:19;;;;;;;8.30;6.40;;;;;;;4.33;100.00;100393.65;109518;1253;69784;-69
2023/05/09 01:05:52;;;;;;;8.50;5.90;;;;;;;4.34;100.00;100394.98;109361;1256;75629;-69
2023/05/09 01:08:34;;;;;;;5.20;4.70;;;;;;;4.35;100.00;100398.77;109414;1251;61261;-70
2023/05/09 01:11:06;;;;;;;7.40;4.30;;;;;;;4.37;100.00;100397.98;109429;1253;61735;-69
2023/05/09 01:13:40;;;;;;;5.90;4.40;;;;;;;4.38;100.00;100402.77;109441;1254;76087;-70
2023/05/09 01:16:17;;;;;;;6.10;4.60;;;;;;;4.40;100.00;100400.95;109460;1252;70308;-70
2023/05/09 01:19:17;;;;;;;5.40;4.90;;;;;;;4.40;100.00;100404.98;109469;1252;74736;-69
2023/05/09 01:21:44;;;;;;;7.20;4.90;;;;;;;4.38;100.00;100401.90;109511;1253;60457;-69
2023/05/09 01:24:38;;;;;;;4.40;4.00;;;;;;;4.37;100.00;100401.84;109434;1252;60500;-68
2023/05/09 01:27:31;;;;;;;6.20;5.00;;;;;;;4.34;100.00;100399.77;109588;1253;75949;-67
2023/05/09 01:29:58;;;;;;;6.50;4.40;;;;;;;4.31;100.00;100401.90;109405;1252;70281;-69
2023/05/09 01:32:27;;;;;;;4.70;4.30;;;;;;;4.30;100.00;100400.19;109243;1253;72083;-67
2023/05/09 01:34:54;;;;;;;5.10;4.60;;;;;;;4.29;100.00;100402.06;109513;1253;61899;-67
2023/05/09 01:37:24;;;;;;;4.60;4.10;;;;;;;4.27;100.00;100398.14;109526;1253;59403;-69
2023/05/09 01:39:52;;;;;;;5.60;4.40;;;;;;;4.25;100.00;100396.38;109498;1253;76331;-69
2023/05/09 01:42:19;;;;;;;7.50;3.60;;;;;;;4.24;100.00;100397.70;109508;1253;67067;-67
2023/05/09 01:44:46;;;;;;;4.10;3.70;;;;;;;4.24;100.00;100402.26;109471;1257;72892;-68
2023/05/09 01:47:15;;;;;;;4.80;4.30;;;;;;;4.24;100.00;100401.33;109462;1253;61436;-68
2023/05/09 01:49:42;;;;;;;5.10;4.30;;;;;;;4.23;100.00;100398.46;109228;1252;62803;-68
2023/05/09 01:52:12;;;;;;;5.20;4.70;;;;;;;4.21;100.00;100398.77;109373;1254;76929;-70
2023/05/09 01:54:39;;;;;;;5.90;4.60;;;;;;;4.19;100.00;100399.94;109364;1253;68886;-69
2023/05/09 01:57:06;;;;;;;6.20;4.30;;;;;;;4.18;100.00;100402.33;109479;1252;73818;-68
2023/05/09 01:59:34;;;;;;;8.60;4.80;;;;;;;4.17;100.00;100398.18;109469;1252;59473;-70
2023/05/09 02:02:02;;;;;;;6.30;3.90;;;;;;;4.16;100.00;100395.42;109418;1252;58868;-69
2023/05/09 02:04:28;;;;;;;8.20;4.20;;;;;;;4.18;100.00;100393.39;109467;1253;73514;-70
2023/05/09 02:06:55;;;;;;;6.10;3.60;;;;;;;4.19;100.00;100398.41;109355;1254;68976;-70
2023/05/09 02:09:23;;;;;;;8.50;4.20;;;;;;;4.19;100.00;100398.60;109321;1253;74097;-69
2023/05/09 02:11:50;;;;;;;4.30;3.80;;;;;;;4.18;100.00;100392.98;109295;1256;61551;-71
2023/05/09 02:14:16;;;;;;;6.50;3.60;;;;;;;4.17;100.00;100391.88;109460;1253;61177;-68
2023/05/09 02:16:43;;;;;;;4.10;3.20;;;;;;;4.17;100.00;100390.30;109492;1253;75967;-68
2023/05/09 02:19:10;;;;;;;8.60;5.00;;;;;;;4.17;100.00;100389.25;109608;1253;69932;-71
2023/05/09 02:21:37;;;;;;;5.20;3.10;;;;;;;4.18;100.00;100386.02;109381;1253;74068;-68
2023/05/09 02:24:04;;;;;;;5.40;3.20;;;;;;;4.18;100.00;100382.81;109459;1253;61731;-68
2023/05/09 02:26:31;;;;;;;6.80;4.20;;;;;;;4.19;100.00;100382.39;109320;1252;60248;-69
2023/05/09 02:28:58;;;;;;;5.00;3.70;;;;;;;4.22;100.00;100390.12;109386;1254;76049;-70
2023/05/09 02:31:24;;;;;;;4.30;3.80;;;;;;;4.24;100.00;100386.80;109430;1252;69131;-68
2023/05/09 02:33:51;;;;;;;4.50;3.30;;;;;;;4.25;100.00;100389.15;109209;1252;71838;-68
2023/05/09 02:36:18;;;;;;;4.40;3.10;;;;;;;4.25;100.00;100388.09;109515;1252;58985;-67
2023/05/09 02:38:45;;;;;;;3.70;3.20;;;;;;;4.26;100.00;100391.57;109553;1253;62414;-70
2023/05/09 02:41:16;;;;;;;4.20;3.20;;;;;;;4.27;100.00;100400.25;109392;1252;76482;-71
2023/05/09 02:43:42;;;;;;;7.50;3.20;;;;;;;4.29;100.00;100396.27;109554;1253;68796;-69
2023/05/09 02:46:09;;;;;;;4.20;3.40;;;;;;;4.31;100.00;100398.21;109432;1253;72430;-70
2023/05/09 02:48:36;;;;;;;5.00;3.50;;;;;;;4.32;100.00;100403.59;109588;1252;60289;-71
2023/05/09 02:51:04;;;;;;;4.50;3.70;;;;;;;4.32;100.00;100404.61;109388;1254;61410;-70
2023/05/09 02:53:30;;;;;;;5.20;3.30;;;;;;;4.34;100.00;100406.61;109497;1252;75225;-66
2023/05/09 02:55:57;;;;;;;4.20;2.90;;;;;;;4.35;100.00;100407.23;109413;1252;67455;-68
2023/05/09 02:58:24;;;;;;;4.20;3.40;;;;;;;4.38;100.00;100405.42;109555;1252;71335;-66
2023/05/09 03:00:51;;;;;;;3.20;2.90;;;;;;;4.44;100.00;100404.85;109596;1251;61671;-67
2023/05/09 03:03:17;;;;;;;4.00;3.30;;;;;;;4.52;100.00;100403.77;109451;1253;62275;-67
2023/05/09 03:05:45;;;;;;;3.70;2.90;;;;;;;4.61;100.00;100405.55;109494;1253;75734;-69
2023/05/09 03:08:12;;;;;;;4.00;3.10;;;;;;;4.71;100.00;100406.39;109401;1253;69372;-67
2023/05/09 03:10:38;;;;;;;3.10;2.80;;;;;;;4.83;100.00;100404.63;109502;1253;74000;-69
2023/05/09 03:13:06;;;;;;;4.00;2.70;;;;;;;4.94;100.00;100401.86;109337;1254;60666;-69
2023/05/09 03:15:32;;;;;;;3.90;2.80;;;;;;;5.07;100.00;100402.20;109293;1253;59697;-67
2023/05/09 03:17:59;;;;;;;3.20;2.90;;;;;;;5.20;100.00;100410.48;109516;1252;75666;-69
2023/05/09 03:20:26;;;;;;;3.80;3.00;;;;;;;5.35;100.00;100409.34;109566;1252;70300;-70
2023/05/09 03:22:53;;;;;;;4.40;2.70;;;;;;;5.50;100.00;100409.98;109417;1253;71216;-70
2023/05/09 03:25:21;;;;;;;9.00;4.20;;;;;;;5.65;100.00;100415.52;109372;1252;60395;-70
2023/05/09 03:27:48;;;;;;;5.10;3.70;;;;;;;5.82;100.00;100416.30;109582;1253;61246;-70
2023/05/09 03:30:14;;;;;;;6.80;3.70;;;;;;;6.00;100.00;100419.54;109611;1251;75725;-69
2023/05/09 03:32:42;;;;;;;3.30;2.80;;;;;;;6.15;100.00;100419.55;109366;1253;69791;-69
2023/05/09 03:35:09;;;;;;;6.00;3.30;;;;;;;6.35;100.00;100420.44;109461;1252;73546;-70
2023/05/09 03:37:36;;;;;;;4.00;2.80;;;;;;;6.56;100.00;100420.73;109460;1254;60161;-69
2023/05/09 03:40:05;;;;;;;2.90;2.60;;;;;;;6.76;100.00;100416.61;109374;1253;61049;-68
2023/05/09 03:42:35;;;;;;;6.60;3.10;;;;;;;7.00;100.00;100419.78;109428;1252;76168;-68
2023/05/09 03:45:03;;;;;;;7.40;3.60;;;;;;;7.25;100.00;100420.50;109463;1253;68907;-69
2023/05/09 03:47:30;;;;;;;11.20;3.60;;;;;;;7.51;100.00;100419.91;109565;1253;73511;-69
2023/05/09 03:49:57;;;;;;;6.20;3.40;;;;;;;7.75;100.00;100421.22;109513;1252;61133;-70
2023/05/09 03:52:24;;;;;;;7.90;3.60;;;;;;;8.01;100.00;100423.19;109601;1253;62635;-69
2023/05/09 03:54:51;;;;;;;7.20;3.20;;;;;;;8.28;100.00;100426.20;109491;1252;75780;-67
2023/05/09 03:57:18;;;;;;;4.40;3.00;;;;;;;8.53;100.00;100426.83;109519;1252;69279;-69
2023/05/09 03:59:46;;;;;;;6.20;2.70;;;;;;;8.78;99.03;100424.56;109401;1251;73718;-72
2023/05/09 04:02:13;;;;;;;3.30;2.80;;;;;;;9.08;98.19;100423.98;109514;1252;59314;-70
2023/05/09 04:04:40;;;;;;;5.40;3.40;;;;;;;9.39;95.35;100422.20;109567;1252;61976;-70
2023/05/09 04:07:10;;;;;;;3.30;3.00;;;;;;;9.71;93.65;100419.88;109401;1252;76034;-68
2023/05/09 04:09:36;;;;;;;3.50;3.20;;;;;;;10.01;89.88;100423.65;109494;1252;68130;-71
2023/05/09 04:12:04;;;;;;;4.10;3.00;;;;;;;10.28;86.06;100418.80;109330;1252;74084;-70
2023/05/09 04:14:31;;;;;;;4.20;3.10;;;;;;;10.56;83.67;100416.58;109350;1253;59380;-71
2023/05/09 04:16:58;;;;;;;2.90;2.60;;;;;;;10.89;80.52;100411.55;109426;1254;61294;-69
2023/05/09 04:19:25;;;;;;;4.70;3.10;;;;;;;11.22;77.93;100416.08;109568;1252;76625;-70
2023/05/09 04:21:52;;;;;;;4.80;3.20;;;;;;;11.55;75.67;100415.42;109506;1253;69582;-68
2023/05/09 04:24:19;;;;;;;3.80;2.90;;;;;;;11.87;72.99;100413.77;109486;1252;73240;-69
2023/05/09 04:26:46;;;;;;;5.90;3.10;;;;;;;12.15;70.55;100412.81;109540;1254;60989;-70
2023/05/09 04:29:16;;;;;;;3.60;2.70;;;;;;;12.45;68.82;100410.56;109399;1253;60179;-69
2023/05/09 04:31:48;;;;;;;3.40;3.10;;;;;;;12.73;66.47;100410.66;109214;1253;75586;-69
2023/05/09 04:34:15;;;;;;;5.00;3.20;;;;;;;12.97;64.78;100411.30;109552;1252;68759;-69
2023/05/09 04:36:42;;;;;;;3.70;3.00;;;;;;;13.23;63.41;100404.40;109407;1254;72763;-68
2023/05/09 04:39:09;;;;;;;4.50;3.20;;;;;;;13.50;61.13;100404.23;109338;1252;61369;-71
2023/05/09 04:41:37;;;;;;;4.50;2.70;;;;;;;13.74;59.10;100406.95;109336;1253;62678;-69
2023/05/09 04:44:04;;;;;;;4.30;3.10;;;;;;;14.00;58.26;100402.81;109548;1253;75426;-71
2023/05/09 04:46:31;;;;;;;3.70;2.60;;;;;;;14.33;57.14;100399.77;109477;1253;68561;-70
2023/05/09 04:48:58;;;;;;;6.20;2.90;;;;;;;14.71;55.27;100397.06;109498;1253;74726;-72
2023/05/09 04:51:25;;;;;;;5.40;2.50;;;;;;;15.09;54.33;100396.45;109509;1253;59049;-68
2023/05/09 04:53:52;;;;;;;7.90;3.00;;;;;;;15.55;53.62;100396.17;109468;1253;62693;-69
2023/05/09 04:56:20;;;;;;;4.80;2.20;;;;;;;16.06;52.48;100396.31;109372;1253;76947;-69
2023/05/09 04:58:48;;;;;;;3.50;2.50;;;;;;;16.55;51.03;100395.50;109485;1253;70000;-69
2023/05/09 05:01:15;;;;;;;4.90;2.70;;;;;;;16.95;48.94;100390.39;109495;1253;73558;-70
2023/05/09 05:03:43;;;;;;;4.00;2.30;;;;;;;17.33;48.50;100391.54;109303;1252;61034;-70
2023/05/09 05:06:10;;;;;;;4.10;2.30;;;;;;;17.81;47.37;100389.52;109454;1251;62025;-68
2023/05/09 05:08:38;;;;;;;4.30;2.20;;;;;;;18.29;45.72;100385.52;109400;1251;77008;-71
2023/05/09 05:11:05;;;;;;;10.90;2.80;;;;;;;18.70;43.75;100384.05;109477;1251;70112;-70
2023/05/09 05:13:32;;;;;;;3.90;2.00;;;;;;;19.05;42.30;100377.87;109608;1251;73495;-71
2023/05/09 05:15:59;;;;;;;7.20;2.20;;;;;;;19.47;42.31;100379.17;109439;1253;61164;-70
2023/05/09 05:18:26;;;;;;;4.60;2.20;;;;;;;19.99;40.95;100379.52;109618;1251;60180;-69
2023/05/09 05:20:53;;;;;;;3.20;1.80;;;;;;;20.41;38.89;100380.09;109559;1251;74313;-68
2023/05/09 05:23:21;;;;;;;3.90;2.10;;;;;;;20.80;38.04;100373.59;109600;1251;70165;-70
2023/05/09 05:25:49;;;;;;;4.70;2.00;;;;;;;21.25;36.75;100372.88;109370;1252;74728;-71
2023/05/09 05:28:17;;;;;;;5.80;2.00;;;;;;;21.59;35.92;100368.58;109509;1253;62547;-71
2023/05/09 05:30:44;;;;;;;3.70;1.60;;;;;;;21.88;34.46;100375.42;109501;1250;59173;-69
2023/05/09 05:33:11;;;;;;;4.80;2.30;;;;;;;22.13;33.27;100376.80;109465;1251;76985;-73
2023/05/09 05:35:38;;;;;;;2.40;2.20;;;;;;;22.37;32.39;100380.52;109591;1251;68813;-70
2023/05/09 05:38:05;;;;;;;3.70;2.20;;;;;;;22.59;32.31;100383.70;109484;1251;73631;-72
2023/05/09 05:40:32;;;;;;;2.40;2.20;;;;;;;22.96;32.49;100385.67;109526;1253;60247;-72
2023/05/09 05:43:00;;;;;;;5.50;2.70;;;;;;;23.40;31.89;100384.36;109375;1251;58941;-73
2023/05/09 05:45:29;;;;;;;2.50;2.10;;;;;;;23.67;30.71;100381.49;109558;1251;73617;-70
2023/05/09 05:47:57;;;;;;;5.80;2.00;;;;;;;23.77;30.06;100379.20;109376;1252;69492;-70
2023/05/09 05:50:24;;;;;;;7.30;2.50;;;;;;;23.87;29.42;100383.12;109557;1253;73076;-72
2023/05/09 05:52:51;;;;;;;6.30;2.80;;;;;;;23.98;29.17;100381.23;109588;1253;61429;-71
2023/05/09 05:55:18;;;;;;;2.60;2.00;;;;;;;24.11;29.26;100381.21;109493;1254;62484;-70
2023/05/09 05:57:46;;;;;;;3.00;2.10;;;;;;;24.25;29.14;100380.41;109395;1251;76432;-70
2023/05/09 06:00:15;;;;;;;9.20;2.60;;;;;;;24.35;29.11;100382.06;109525;1251;69351;-72
2023/05/09 06:02:44;;;;;;;2.20;1.80;;;;;;;24.64;29.33;100374.42;109429;1251;74820;-71
2023/05/09 06:05:17;;;;;;;6.20;2.50;;;;;;;25.08;28.77;100372.18;109440;1252;61441;-69
2023/05/09 06:07:44;;;;;;;5.60;1.80;;;;;;;25.46;28.78;100366.36;109345;1252;60128;-67
2023/05/09 06:10:11;;;;;;;3.50;1.60;;;;;;;25.92;27.17;100367.02;109312;1253;76269;-70
2023/05/09 06:12:37;;;;;;;4.00;1.70;;;;;;;26.22;25.34;100367.36;109397;1253;69261;-69
2023/05/09 06:15:06;;;;;;;6.20;1.30;;;;;;;26.62;24.90;100368.70;109363;1252;72584;-68
2023/05/09 06:17:34;;;;;;;3.10;1.60;;;;;;;26.94;23.38;100365.86;109391;1253;60452;-69
2023/05/09 06:20:01;;;;;;;2.20;1.70;;;;;;;27.08;22.80;100365.40;109107;1254;59621;-68
2023/05/09 06:22:28;;;;;;;7.30;2.00;;;;;;;27.16;22.91;100361.33;109556;1254;76867;-68
2023/05/09 06:24:55;;;;;;;2.80;2.20;;;;;;;27.30;22.70;100365.58;109504;1252;69331;-70
2023/05/09 06:27:22;;;;;;;3.20;2.00;;;;;;;27.27;21.59;100365.81;109321;1253;72842;-70
2023/05/09 06:29:51;;;;;;;2.70;2.10;;;;;;;27.17;21.66;100372.71;109498;1253;62309;-71
2023/05/09 06:32:18;;;;;;;4.10;2.30;;;;;;;27.28;21.30;100368.08;109543;1254;62553;-70
2023/05/09 06:34:45;;;;;;;3.10;2.00;;;;;;;27.41;21.18;100367.23;109510;1254;76972;-71
2023/05/09 06:37:12;;;;;;;3.30;2.10;;;;;;;27.65;21.59;100369.15;109522;1252;70077;-74
2023/05/09 06:39:38;;;;;;;3.60;1.90;;;;;;;27.89;20.16;100368.04;109579;1252;72937;-69
2023/05/09 06:42:05;;;;;;;2.50;2.00;;;;;;;27.90;19.91;100364.48;109472;1253;59583;-67
2023/05/09 06:44:35;;;;;;;6.70;2.10;;;;;;;27.92;20.28;100363.24;109343;1253;62065;-68
2023/05/09 06:47:02;;;;;;;2.70;2.00;;;;;;;27.91;20.07;100364.60;109486;1252;76745;-66
2023/05/09 06:49:29;;;;;;;6.50;2.30;;;;;;;27.90;19.55;100365.42;109538;1253;67089;-68
2023/05/09 06:51:56;;;;;;;3.60;2.40;;;;;;;28.00;19.68;100365.89;109529;1252;75907;-66
2023/05/09 06:54:22;;;;;;;3.50;2.50;;;;;;;27.89;18.46;100373.35;109510;1253;61506;-66
2023/05/09 06:56:49;;;;;;;5.90;2.40;;;;;;;27.56;17.91;100374.21;109516;1254;61658;-69
2023/05/09 06:59:16;;;;;;;3.30;2.50;;;;;;;27.12;18.12;100374.63;109621;1253;75139;-69
2023/05/09 07:01:43;;;;;;;3.30;2.50;;;;;;;26.82;18.27;100373.52;109549;1253;70146;-70
2023/05/09 07:04:10;;;;;;;3.60;2.80;;;;;;;26.63;18.55;100374.40;109551;1252;73552;-67
2023/05/09 07:06:37;;;;;;;3.60;2.60;;;;;;;26.57;18.61;100374.64;109509;1251;61331;-69
2023/05/09 07:09:04;;;;;;;4.90;2.90;;;;;;;26.65;18.86;100370.23;109610;1251;61191;-68
2023/05/09 07:11:35;;;;;;;4.90;3.20;;;;;;;26.77;19.30;100372.73;109475;1251;77474;-68
2023/05/09 07:14:02;;;;;;;3.70;2.20;;;;;;;27.00;18.98;100367.13;109557;1251;69980;-69
2023/05/09 07:16:29;;;;;;;5.10;2.80;;;;;;;27.01;18.02;100368.81;109532;1254;73156;-68
2023/05/09 07:18:56;;;;;;;4.80;3.00;;;;;;;26.97;17.68;100366.49;109444;1254;62037;-67
2023/05/09 07:21:23;;;;;;;4.50;2.80;;;;;;;27.18;18.48;100363.05;109593;1251;62169;-69
2023/05/09 07:23:50;;;;;;;6.30;2.50;;;;;;;27.38;17.78;100361.95;109602;1251;74394;-69
2023/05/09 07:26:16;;;;;;;3.30;2.20;;;;;;;27.39;17.29;100357.34;109596;1251;69551;-68
2023/05/09 07:28:43;;;;;;;4.60;3.20;;;;;;;27.49;17.23;100361.41;109486;1254;74766;-67
2023/05/09 07:31:10;;;;;;;3.90;2.70;;;;;;;27.49;16.91;100355.69;109247;1251;60892;-69
2023/05/09 07:33:37;;;;;;;3.60;2.40;;;;;;;27.52;17.23;100358.55;109559;1251;62426;-71
2023/05/09 07:36:04;;;;;;;4.80;3.10;;;;;;;27.83;16.87;100357.38;109555;1251;74842;-67
2023/05/09 07:38:31;;;;;;;6.70;2.50;;;;;;;27.85;16.28;100354.17;109532;1251;68497;-75
2023/05/09 07:40:58;;;;;;;3.30;2.70;;;;;;;27.75;16.06;100355.28;109411;1251;74165;-69
2023/05/09 07:43:26;;;;;;;6.40;2.80;;;;;;;27.80;15.69;100347.90;109523;1253;62522;-69
2023/05/09 07:45:53;;;;;;;6.20;2.80;;;;;;;27.79;15.78;100346.15;109540;1251;61594;-71
2023/05/09 07:48:19;;;;;;;3.60;2.90;;;;;;;27.90;15.57;100346.11;109567;1254;75331;-71
2023/05/09 07:50:46;;;;;;;3.50;2.50;;;;;;;28.34;15.62;100345.98;109623;1251;69814;-74
2023/05/09 07:53:13;;;;;;;5.30;3.00;;;;;;;28.70;15.41;100345.95;109523;1253;73333;-69
2023/05/09 07:55:40;;;;;;;3.60;2.80;;;;;;;28.56;15.00;100349.94;109505;1251;62643;-75
2023/05/09 07:58:07;;;;;;;4.30;2.60;;;;;;;28.38;15.19;100347.09;109382;1251;62509;-69
2023/05/09 08:00:34;;;;;;;3.40;2.70;;;;;;;28.67;15.08;100343.15;109625;1251;76529;-71
2023/05/09 08:03:01;;;;;;;2.90;2.20;;;;;;;28.19;15.48;100338.65;109630;1251;70179;-71
2023/05/09 08:05:28;;;;;;;4.00;2.40;;;;;;;27.69;15.09;100340.65;109531;1251;71915;-71
2023/05/09 08:07:55;;;;;;;2.30;2.00;;;;;;;27.27;15.04;100348.23;109582;1253;60838;-67
2023/05/09 08:10:22;;;;;;;3.80;2.60;;;;;;;26.73;15.55;100339.55;109569;1251;60912;-72
2023/05/09 08:12:50;;;;;;;2.40;2.20;;;;;;;27.31;15.82;100335.17;109560;1251;75914;-69
2023/05/09 08:15:17;;;;;;;2.20;2.00;;;;;;;27.70;15.57;100333.50;109521;1251;70529;-73
2023/05/09 08:17:44;;;;;;;4.70;2.20;;;;;;;27.22;15.95;100336.60;109551;1251;73256;-73
2023/05/09 08:20:12;;;;;;;2.40;2.20;;;;;;;26.99;16.10;100339.36;109547;1251;61414;-70
2023/05/09 08:22:39;;;;;;;3.20;2.50;;;;;;;26.09;16.17;100342.67;109504;1253;61840;-70
2023/05/09 08:25:06;;;;;;;3.30;2.20;;;;;;;24.44;16.95;100345.71;109593;1251;75487;-68
2023/05/09 08:27:33;;;;;;;2.80;2.00;;;;;;;23.17;17.95;100342.22;109299;1251;67699;-68
2023/05/09 08:30:11;;;;;;;4.90;2.40;;;;;;;23.87;18.24;100343.83;109591;1254;72335;-76
2023/05/09 08:32:40;;;;;;;2.80;2.20;;;;;;;25.19;16.85;100338.19;109432;1251;61125;-77
2023/05/09 08:35:07;;;;;;;4.30;2.10;;;;;;;26.09;16.47;100336.09;109548;1258;62352;-74
2023/05/09 08:37:35;;;;;;;6.10;2.20;;;;;;;26.72;16.20;100326.66;109638;1251;76671;-69
2023/05/09 08:40:06;;;;;;;2.70;2.20;;;;;;;26.83;16.05;100323.09;109573;1251;66972;-72
2023/05/09 08:42:38;;;;;;;2.70;2.10;;;;;;;26.50;16.23;100321.25;109560;1251;73658;-74
2023/05/09 08:45:15;;;;;;;3.10;2.50;;;;;;;27.06;16.14;100317.10;109462;1251;62189;-72
2023/05/09 08:47:42;;;;;;;4.10;2.60;;;;;;;28.21;15.64;100314.91;109551;1251;61866;-76
2023/05/09 08:50:10;;;;;;;4.80;2.50;;;;;;;29.13;14.54;100321.54;109594;1256;75845;-74
2023/05/09 08:52:37;;;;;;;2.80;2.10;;;;;;;29.49;13.98;100316.61;109447;1251;69802;-71
2023/05/09 08:55:04;;;;;;;3.90;2.10;;;;;;;29.42;14.19;100312.77;109467;1251;73537;-70
2023/05/09 08:57:33;;;;;;;3.40;2.20;;;;;;;29.89;14.22;100301.98;109528;1251;62803;-75
2023/05/09 09:00:02;;;;;;;3.30;2.30;;;;;;;30.79;13.68;100302.09;109434;1251;59445;-75
2023/05/09 09:02:30;;;;;;;2.60;2.30;;;;;;;31.46;12.95;100307.11;109544;1251;76558;-76
2023/05/09 09:05:01;;;;;;;2.70;2.40;;;;;;;31.23;12.75;100304.41;109600;1251;69837;-75
2023/05/09 09:07:29;;;;;;;4.10;2.30;;;;;;;30.86;12.82;100305.24;109191;1253;74735;-73
2023/05/09 09:09:57;;;;;;;2.50;2.30;;;;;;;31.22;12.70;100294.64;109407;1253;61813;-73
2023/05/09 09:12:24;;;;;;;2.60;2.10;;;;;;;31.28;12.80;100293.88;109582;1254;58923;-72
2023/05/09 09:14:53;;;;;;;3.00;2.70;;;;;;;29.97;13.23;100298.88;109456;1251;73580;-72
2023/05/09 09:17:24;;;;;;;3.70;2.10;;;;;;;28.20;14.24;100299.02;109364;1251;237692;-73
2023/05/09 09:19:51;;;;;;;6.20;2.20;;;;;;;26.98;14.92;100294.38;109445;1251;75247;-74
2023/05/09 09:22:19;;;;;;;3.40;2.30;;;;;;;27.52;14.98;100297.73;109544;1252;61373;-76
2023/05/09 09:24:46;;;;;;;2.60;2.40;;;;;;;28.40;14.23;100301.73;109515;1251;62934;-76
2023/05/09 09:27:13;;;;;;;4.30;2.30;;;;;;;28.59;13.64;100304.73;109560;1251;75815;-75
2023/05/09 09:29:40;;;;;;;3.80;2.80;;;;;;;28.40;14.08;100300.04;109525;1251;68952;-74
2023/05/09 09:32:06;;;;;;;4.40;2.30;;;;;;;28.48;13.87;100295.64;109641;1251;73996;-73
2023/05/09 09:34:33;;;;;;;3.00;2.20;;;;;;;28.61;13.82;100294.72;109459;1251;59387;-73
2023/05/09 09:37:01;;;;;;;4.00;2.30;;;;;;;28.70;13.76;100292.85;109568;1251;62461;-70
2023/05/09 09:39:28;;;;;;;3.00;2.00;;;;;;;28.10;14.16;100284.98;109433;1251;76912;-74
2023/05/09 09:41:55;;;;;;;3.90;2.10;;;;;;;27.27;14.47;100285.08;109574;1251;69857;-72
2023/05/09 09:44:22;;;;;;;5.60;2.60;;;;;;;26.76;14.71;100288.06;109475;1254;74015;-68
2023/05/09 09:46:51;;;;;;;2.50;2.30;;;;;;;27.16;14.60;100287.11;109548;1251;62662;-71
2023/05/09 09:49:20;;;;;;;2.40;2.00;;;;;;;28.14;14.61;100290.09;109492;1251;61108;-73
2023/05/09 09:51:51;;;;;;;4.40;2.20;;;;;;;29.10;13.98;100291.13;109468;1251;75531;-68
2023/05/09 09:54:17;;;;;;;3.00;2.50;;;;;;;29.65;13.50;100284.59;109520;1257;69992;-72
2023/05/09 09:56:48;;;;;;;2.30;2.10;;;;;;;30.11;13.30;100281.77;109429;1254;74240;-67
2023/05/09 09:59:17;;;;;;;2.20;2.00;;;;;;;30.35;13.24;100279.71;109505;1251;59199;-68
2023/05/09 10:01:56;;;;;;;4.20;2.20;;;;;;;30.15;13.00;100282.64;109548;1251;61032;-67
2023/05/09 10:04:24;;;;;;;5.90;2.10;;;;;;;29.94;13.11;100273.75;109561;1253;76711;-68
2023/05/09 10:06:55;;;;;;;3.60;2.30;;;;;;;30.28;13.03;100278.80;109458;1251;70050;-69
2023/05/09 10:09:23;;;;;;;3.60;2.10;;;;;;;29.87;12.71;100277.92;109563;1251;74527;-66
2023/05/09 10:11:53;;;;;;;4.30;2.40;;;;;;;29.41;13.06;100273.19;109506;1254;60569;-67
2023/05/09 10:14:22;;;;;;;2.40;2.10;;;;;;;29.40;12.95;100272.36;109516;1252;60047;-70
2023/05/09 10:16:56;;;;;;;2.80;1.70;;;;;;;29.15;12.88;100270.91;109607;1251;75568;-68
2023/05/09 10:19:25;;;;;;;2.70;1.80;;;;;;;28.06;13.39;100281.17;109296;1251;66751;-68
2023/05/09 10:21:53;;;;;;;4.40;1.80;;;;;;;26.61;14.29;100276.63;109492;1254;74831;-69
2023/05/09 10:24:26;;;;;;;4.10;2.20;;;;;;;25.52;15.05;100275.02;109488;1251;61479;-67
2023/05/09 10:26:58;;;;;;;4.00;2.10;;;;;;;24.76;15.33;100273.46;109581;1251;59621;-68
2023/05/09 10:29:25;;;;;;;3.50;2.20;;;;;;;24.11;16.14;100278.91;109524;1251;76492;-66
2023/05/09 10:31:53;;;;;;;3.30;2.00;;;;;;;22.96;16.90;100276.67;109423;1257;69810;-67
2023/05/09 10:34:20;;;;;;;3.60;1.80;;;;;;;22.00;17.34;100275.69;109308;1251;73625;-68
2023/05/09 10:36:47;;;;;;;3.60;1.90;;;;;;;21.51;18.24;100280.28;109346;1254;60491;-70
2023/05/09 10:39:14;;;;;;;4.50;1.70;;;;;;;21.26;19.08;100282.70;109521;1251;63111;-69
2023/05/09 10:41:40;;;;;;;4.40;1.90;;;;;;;21.12;19.12;100279.05;109290;1259;76339;-66
2023/05/09 10:44:07;;;;;;;3.00;2.30;;;;;;;20.84;19.03;100278.09;109584;1254;69750;-68
2023/05/09 10:46:34;;;;;;;2.20;1.80;;;;;;;20.31;19.19;100280.13;109370;1251;74161;-68
2023/05/09 10:49:01;;;;;;;2.60;1.80;;;;;;;19.79;19.71;100281.02;109445;1254;62600;-66
2023/05/09 10:51:28;;;;;;;3.10;2.10;;;;;;;19.36;20.05;100281.36;109304;1251;61613;-66
2023/05/09 10:53:55;;;;;;;2.50;2.20;;;;;;;18.97;20.30;100277.77;109472;1251;74962;-69
2023/05/09 10:56:28;;;;;;;3.30;2.00;;;;;;;18.59;20.27;100271.27;109542;1251;68341;-67
2023/05/09 10:58:56;;;;;;;4.60;1.90;;;;;;;18.25;20.58;100263.20;109501;1251;74725;-65
2023/05/09 11:01:37;;;;;;;7.50;1.80;;;;;;;18.05;21.33;100266.52;109513;1255;60478;-68
2023/05/09 11:04:11;;;;;;;4.40;1.90;;;;;;;17.92;21.12;100267.40;109588;1253;61946;-68
2023/05/09 11:06:51;;;;;;;3.00;1.60;;;;;;;17.83;21.25;100263.58;109563;1251;73646;-70
2023/05/09 11:09:34;;;;;;;3.00;1.90;;;;;;;17.83;21.83;100266.08;109544;1251;69245;-68
2023/05/09 11:12:04;;;;;;;3.40;1.90;;;;;;;17.78;22.55;100260.73;109517;1258;73468;-71
2023/05/09 11:14:38;;;;;;;3.00;1.80;;;;;;;17.81;22.25;100264.33;109536;1257;61638;-66
2023/05/09 11:17:06;;;;;;;2.50;1.90;;;;;;;17.95;22.16;100253.84;109572;1251;62376;-66
2023/05/09 11:19:36;;;;;;;3.40;1.60;;;;;;;18.07;21.88;100252.45;109524;1254;76436;-68
2023/05/09 11:22:19;;;;;;;6.30;1.80;;;;;;;18.07;22.17;100251.91;109582;1251;68408;-65